Time;durP1;ratioP1;P1;durP2;ratioP2;P2;SDS_P1;SDS_P2;PMS_P1;PMS_P2;Temp;Humidity;BMP_temperature;BMP_pressure;BME280_temperature;BME280_humidity;BME280_pressure;Samples;Min_cycle;Max_cycle;Signal;HPM_P1;HPM_P2
2021/11/10 00:02:03;;;;;;;202.60;192.60;;;10.40;99.90;;;;;;4422637;32;20218;-61
2021/11/10 00:04:30;;;;;;;196.30;186.27;;;10.40;99.90;;;;;;4422756;32;20178;-63
2021/11/10 00:06:57;;;;;;;193.23;182.83;;;10.40;99.90;;;;;;4422353;32;20620;-62
2021/11/10 00:09:24;;;;;;;187.30;177.53;;;10.40;99.90;;;;;;4422516;32;20191;-61
2021/11/10 00:11:51;;;;;;;194.00;183.87;;;10.40;99.90;;;;;;4422358;32;20167;-63
2021/11/10 00:14:18;;;;;;;187.40;177.80;;;10.30;99.90;;;;;;4423963;32;20162;-63
2021/11/10 00:16:47;;;;;;;188.60;179.03;;;10.30;99.90;;;;;;4419333;32;20512;-64
2021/11/10 00:19:14;;;;;;;192.27;181.87;;;10.40;99.90;;;;;;4408951;32;20164;-61
2021/11/10 00:21:41;;;;;;;194.07;183.90;;;10.30;99.90;;;;;;4408749;32;20171;-63
2021/11/10 00:24:08;;;;;;;203.63;193.27;;;10.30;99.90;;;;;;4415082;32;20155;-62
2021/11/10 00:26:35;;;;;;;186.27;176.13;;;10.40;99.90;;;;;;4422105;32;20216;-62
2021/11/10 00:29:02;;;;;;;196.37;186.87;;;10.40;99.90;;;;;;4421947;32;20174;-61
2021/11/10 00:31:29;;;;;;;187.97;178.43;;;10.40;99.90;;;;;;4422061;32;20556;-61
2021/11/10 00:33:57;;;;;;;192.77;182.33;;;10.40;99.90;;;;;;4422057;32;20602;-62
2021/11/10 00:36:24;;;;;;;190.67;180.83;;;10.30;99.90;;;;;;4422117;32;20226;-63
2021/11/10 00:38:51;;;;;;;188.67;179.13;;;10.40;99.90;;;;;;4422544;32;20166;-61
2021/11/10 00:41:18;;;;;;;181.83;172.20;;;10.40;99.90;;;;;;4421803;32;20202;-64
2021/11/10 00:43:45;;;;;;;180.73;171.90;;;10.30;99.90;;;;;;4415964;32;20217;-62
2021/11/10 00:46:12;;;;;;;186.40;177.03;;;10.40;99.90;;;;;;4406632;32;20182;-62
2021/11/10 00:48:39;;;;;;;191.43;181.37;;;10.40;99.90;;;;;;4406685;32;20175;-62
2021/11/10 00:51:07;;;;;;;186.47;176.90;;;10.40;99.90;;;;;;4406715;32;20171;-62
2021/11/10 00:53:34;;;;;;;185.47;175.73;;;10.40;99.90;;;;;;4406533;32;20163;-62
2021/11/10 00:56:02;;;;;;;184.60;174.77;;;10.40;99.90;;;;;;4407188;32;20182;-65
2021/11/10 00:58:28;;;;;;;181.97;172.47;;;10.40;99.90;;;;;;4416763;32;20575;-61
2021/11/10 01:00:55;;;;;;;183.70;173.63;;;10.40;99.90;;;;;;4421637;32;20358;-63
2021/11/10 01:03:23;;;;;;;193.40;183.30;;;10.40;99.90;;;;;;4421816;32;20147;-61
2021/11/10 01:05:50;;;;;;;194.40;184.63;;;10.30;99.90;;;;;;4422947;32;20154;-61
2021/11/10 01:08:19;;;;;;;183.67;174.30;;;10.30;99.90;;;;;;4421432;32;20186;-61
2021/11/10 01:10:46;;;;;;;176.00;167.10;;;10.30;99.90;;;;;;4423132;32;20475;-61
2021/11/10 01:13:13;;;;;;;188.60;178.60;;;10.30;99.90;;;;;;4420827;32;20175;-61
2021/11/10 01:15:42;;;;;;;178.40;168.63;;;10.30;99.90;;;;;;4421441;32;20210;-63
2021/11/10 01:18:09;;;;;;;172.63;164.03;;;10.30;99.90;;;;;;4422416;32;20143;-61
2021/11/10 01:20:36;;;;;;;183.10;173.50;;;10.30;99.90;;;;;;4421800;32;20151;-63
2021/11/10 01:23:04;;;;;;;189.80;179.93;;;10.10;99.90;;;;;;4421412;32;20156;-61
2021/11/10 01:25:32;;;;;;;200.00;189.67;;;10.10;99.90;;;;;;4416947;32;20178;-62
2021/11/10 01:28:00;;;;;;;195.87;185.90;;;10.00;99.90;;;;;;4406150;32;20195;-61
2021/11/10 01:30:27;;;;;;;191.33;181.10;;;10.00;99.90;;;;;;4406012;32;20170;-61
2021/11/10 01:32:54;;;;;;;208.03;197.63;;;10.00;99.90;;;;;;4407756;32;20148;-61
2021/11/10 01:35:21;;;;;;;211.83;200.47;;;10.00;99.90;;;;;;4407683;32;20168;-62
2021/11/10 01:37:48;;;;;;;207.43;196.53;;;10.00;99.90;;;;;;4407747;32;20167;-61
2021/11/10 01:40:17;;;;;;;212.87;202.17;;;9.90;99.90;;;;;;4410400;32;20191;-61
2021/11/10 01:42:46;;;;;;;220.50;210.20;;;9.80;99.90;;;;;;4421507;32;20673;-61
2021/11/10 01:45:19;;;;;;;221.90;210.67;;;9.80;99.90;;;;;;4421029;32;20150;-62
2021/11/10 01:47:46;;;;;;;229.37;217.83;;;9.80;99.90;;;;;;4420991;32;20205;-61
2021/11/10 01:50:17;;;;;;;215.33;204.47;;;9.70;99.90;;;;;;4420928;32;20165;-61
2021/11/10 01:52:45;;;;;;;228.57;216.73;;;9.60;99.90;;;;;;4420859;32;20516;-61
2021/11/10 01:55:13;;;;;;;241.17;229.70;;;9.50;99.90;;;;;;4406143;32;20180;-61
2021/11/10 01:57:40;;;;;;;242.20;230.57;;;9.40;99.90;;;;;;4405752;32;20161;-61
2021/11/10 02:00:12;;;;;;;254.87;242.27;;;9.30;99.90;;;;;;4406028;32;20196;-61
2021/11/10 02:02:41;;;;;;;257.67;244.87;;;9.20;99.90;;;;;;4412901;32;20171;-61
2021/11/10 02:05:10;;;;;;;268.93;255.93;;;9.10;99.90;;;;;;4405962;32;20194;-61
2021/11/10 02:07:37;;;;;;;271.43;258.50;;;9.10;99.90;;;;;;4405627;32;20553;-60
2021/11/10 02:10:05;;;;;;;291.13;277.33;;;9.00;99.90;;;;;;4406404;32;20167;-63
2021/11/10 02:12:33;;;;;;;292.03;278.43;;;9.00;99.90;;;;;;4407100;32;20486;-61
2021/11/10 02:15:00;;;;;;;316.80;301.50;;;9.00;99.90;;;;;;4405270;32;20219;-60
2021/11/10 02:17:29;;;;;;;340.77;324.93;;;9.00;99.90;;;;;;4407079;32;20184;-61
2021/11/10 02:19:56;;;;;;;331.83;316.13;;;9.00;99.90;;;;;;4405001;32;20192;-60
2021/11/10 02:22:25;;;;;;;318.47;303.67;;;9.00;99.90;;;;;;4405571;32;20159;-60
2021/11/10 02:24:52;;;;;;;295.27;281.63;;;9.00;99.90;;;;;;4406113;32;20181;-61
2021/11/10 02:27:21;;;;;;;288.80;275.27;;;9.00;99.90;;;;;;4409354;32;20206;-61
2021/11/10 02:29:49;;;;;;;299.67;285.37;;;9.00;99.90;;;;;;4408486;32;20162;-63
2021/11/10 02:32:17;;;;;;;270.87;257.60;;;8.90;99.90;;;;;;4408617;32;20182;-63
2021/11/10 02:34:46;;;;;;;286.10;272.33;;;8.80;99.90;;;;;;4409833;32;20608;-61
2021/11/10 02:37:14;;;;;;;273.33;259.10;;;8.80;99.90;;;;;;4408543;32;20156;-61
2021/11/10 02:39:43;;;;;;;253.30;241.40;;;8.80;99.90;;;;;;4410145;32;20516;-61
2021/11/10 02:42:10;;;;;;;233.20;221.53;;;8.80;99.90;;;;;;4408256;32;20232;-62
2021/11/10 02:44:37;;;;;;;246.70;234.93;;;8.70;99.90;;;;;;4409271;32;20618;-61
2021/11/10 02:47:07;;;;;;;258.03;245.87;;;8.60;99.90;;;;;;4419898;32;20160;-64
2021/11/10 02:49:34;;;;;;;260.97;247.77;;;8.60;99.90;;;;;;4409678;32;20186;-61
2021/11/10 02:52:03;;;;;;;253.03;240.17;;;8.60;99.90;;;;;;4409933;32;20156;-62
2021/11/10 02:54:32;;;;;;;253.40;240.87;;;8.70;99.90;;;;;;4408256;32;20171;-63
2021/11/10 02:57:04;;;;;;;232.37;221.40;;;8.70;99.90;;;;;;4408300;32;20250;-63
2021/11/10 02:59:32;;;;;;;237.90;226.30;;;8.80;99.90;;;;;;4408338;32;20172;-61
2021/11/10 03:02:00;;;;;;;232.93;221.37;;;8.80;99.90;;;;;;4408222;32;20523;-62
2021/11/10 03:04:29;;;;;;;238.27;226.37;;;8.70;99.90;;;;;;4423244;32;20183;-61
2021/11/10 03:06:57;;;;;;;237.93;225.77;;;8.60;99.90;;;;;;4423300;32;20157;-61
2021/11/10 03:09:30;;;;;;;241.27;229.13;;;8.60;99.90;;;;;;4423385;32;20147;-62
2021/11/10 03:12:00;;;;;;;240.33;228.30;;;8.60;99.90;;;;;;4424443;32;20147;-64
2021/11/10 03:14:28;;;;;;;234.47;223.10;;;8.60;99.90;;;;;;4423084;32;20598;-64
2021/11/10 03:16:55;;;;;;;236.87;225.17;;;8.50;99.90;;;;;;4413789;32;20181;-61
2021/11/10 03:19:22;;;;;;;201.97;191.43;;;8.60;99.90;;;;;;4408016;32;20210;-60
2021/11/10 03:21:50;;;;;;;217.37;205.90;;;8.60;99.90;;;;;;4407962;32;20590;-61
2021/11/10 03:24:18;;;;;;;219.40;208.00;;;8.60;99.90;;;;;;4407830;32;20200;-61
2021/11/10 03:26:45;;;;;;;226.73;214.73;;;8.60;99.90;;;;;;4407723;32;20161;-61
2021/11/10 03:29:14;;;;;;;221.27;210.53;;;8.60;99.90;;;;;;4408745;32;20217;-61
2021/11/10 03:31:41;;;;;;;229.80;218.07;;;8.50;99.90;;;;;;4409021;32;20157;-61
2021/11/10 03:34:10;;;;;;;237.37;225.13;;;8.60;99.90;;;;;;4408198;32;20151;-64
2021/11/10 03:36:38;;;;;;;225.40;214.00;;;8.60;99.90;;;;;;4407691;32;20178;-61
2021/11/10 03:39:06;;;;;;;218.00;206.70;;;8.60;99.90;;;;;;4409467;32;20172;-62
2021/11/10 03:41:32;;;;;;;214.77;203.50;;;8.60;99.90;;;;;;4416313;32;20167;-61
2021/11/10 03:43:59;;;;;;;212.07;200.77;;;8.60;99.90;;;;;;4422915;32;20193;-61
2021/11/10 03:46:27;;;;;;;220.63;209.43;;;8.60;99.90;;;;;;4422804;32;20262;-61
2021/11/10 03:48:54;;;;;;;202.17;191.17;;;8.60;99.90;;;;;;4422349;32;20202;-61
2021/11/10 03:51:22;;;;;;;185.23;175.07;;;8.60;99.90;;;;;;4423656;32;20157;-61
2021/11/10 03:53:50;;;;;;;181.53;171.53;;;8.60;99.90;;;;;;4422614;32;20181;-61
2021/11/10 03:56:17;;;;;;;193.00;182.50;;;8.60;99.90;;;;;;4423632;32;20172;-62
2021/11/10 03:58:44;;;;;;;171.67;161.83;;;8.50;99.90;;;;;;4418620;32;20178;-62
2021/11/10 04:01:13;;;;;;;185.67;175.93;;;8.50;99.90;;;;;;4416061;32;20158;-61
2021/11/10 04:03:42;;;;;;;192.20;181.57;;;8.50;99.90;;;;;;4407422;32;20231;-61
2021/11/10 04:06:09;;;;;;;189.83;178.63;;;8.60;99.90;;;;;;4407133;32;20537;-63
2021/11/10 04:08:36;;;;;;;200.07;189.07;;;8.50;99.90;;;;;;4408990;32;20565;-61
2021/11/10 04:11:04;;;;;;;203.10;192.57;;;8.40;99.90;;;;;;4408121;32;20175;-61
2021/11/10 04:13:32;;;;;;;201.67;191.07;;;8.40;99.90;;;;;;4409097;32;20199;-61
2021/11/10 04:16:00;;;;;;;187.07;177.77;;;8.30;99.90;;;;;;4408420;32;20157;-61
2021/11/10 04:18:32;;;;;;;186.93;176.13;;;8.40;99.90;;;;;;4409057;32;20151;-61
2021/11/10 04:21:00;;;;;;;179.80;169.57;;;8.40;99.90;;;;;;4407198;32;20199;-61
2021/11/10 04:23:28;;;;;;;174.30;164.80;;;8.40;99.90;;;;;;4407115;32;20184;-64
2021/11/10 04:25:55;;;;;;;176.80;166.33;;;8.40;99.90;;;;;;4407005;32;20148;-62
2021/11/10 04:28:22;;;;;;;181.07;170.90;;;8.40;99.90;;;;;;4414557;32;20174;-61
2021/11/10 04:30:51;;;;;;;186.57;177.17;;;8.40;99.90;;;;;;4417285;32;20222;-63
2021/11/10 04:33:18;;;;;;;187.03;176.67;;;8.30;99.90;;;;;;4407967;32;20603;-61
2021/11/10 04:35:45;;;;;;;204.70;193.43;;;8.30;99.90;;;;;;4408049;32;20202;-61
2021/11/10 04:38:14;;;;;;;213.27;202.80;;;8.20;99.90;;;;;;4406791;32;20159;-62
2021/11/10 04:40:41;;;;;;;203.17;192.33;;;8.30;99.90;;;;;;4406909;32;20635;-62
2021/11/10 04:43:08;;;;;;;216.43;205.80;;;8.30;99.90;;;;;;4422253;32;20174;-64
2021/11/10 04:45:37;;;;;;;200.50;189.90;;;8.40;99.90;;;;;;4421856;32;20158;-61
2021/11/10 04:48:04;;;;;;;197.60;186.93;;;8.40;99.90;;;;;;4414838;32;20453;-61
2021/11/10 04:50:35;;;;;;;195.37;184.77;;;8.40;99.90;;;;;;4406697;32;20178;-61
2021/11/10 04:53:02;;;;;;;177.50;167.53;;;8.40;99.90;;;;;;4412461;32;20195;-64
2021/11/10 04:55:30;;;;;;;175.80;166.53;;;8.40;99.90;;;;;;4422137;32;20154;-61
2021/11/10 04:57:58;;;;;;;177.77;168.30;;;8.50;99.90;;;;;;4417163;32;20173;-62
2021/11/10 05:00:25;;;;;;;197.13;185.87;;;8.40;99.90;;;;;;4406672;32;20506;-62
2021/11/10 05:02:52;;;;;;;201.27;190.93;;;8.30;99.90;;;;;;4406414;32;20581;-65
2021/11/10 05:05:20;;;;;;;190.20;179.87;;;8.40;99.90;;;;;;4407780;32;20168;-61
2021/11/10 05:07:48;;;;;;;188.57;178.27;;;8.30;99.90;;;;;;4406504;32;20154;-64
2021/11/10 05:10:16;;;;;;;180.10;170.83;;;8.30;99.90;;;;;;4416964;32;20159;-61
2021/11/10 05:12:44;;;;;;;189.33;179.70;;;8.30;99.90;;;;;;4423226;32;20183;-62
2021/11/10 05:15:11;;;;;;;204.10;193.53;;;8.30;99.90;;;;;;4422217;32;20211;-61
2021/11/10 05:17:38;;;;;;;195.00;184.80;;;8.30;99.90;;;;;;4422086;32;20564;-62
2021/11/10 05:20:06;;;;;;;178.77;169.67;;;8.30;99.90;;;;;;4422710;32;20612;-62
2021/11/10 05:22:33;;;;;;;176.57;166.93;;;8.30;99.90;;;;;;4422002;32;20600;-60
2021/11/10 05:25:00;;;;;;;192.63;182.90;;;8.20;99.90;;;;;;4421385;32;20621;-62
2021/11/10 05:27:27;;;;;;;185.73;175.90;;;8.20;99.90;;;;;;4406597;32;20515;-61
2021/11/10 05:29:55;;;;;;;172.87;163.57;;;8.30;99.90;;;;;;4411418;32;20200;-64
2021/11/10 05:32:22;;;;;;;189.40;179.67;;;8.20;99.90;;;;;;4422880;32;20507;-64
2021/11/10 05:34:50;;;;;;;209.80;199.20;;;8.20;99.90;;;;;;4422834;32;20156;-61
2021/11/10 05:37:17;;;;;;;194.53;185.03;;;8.20;99.90;;;;;;4418529;32;20609;-61
2021/11/10 05:39:44;;;;;;;181.93;172.53;;;8.10;99.90;;;;;;4405855;32;20577;-61
2021/11/10 05:42:11;;;;;;;180.63;171.07;;;8.20;99.90;;;;;;4405858;32;20189;-61
2021/11/10 05:44:38;;;;;;;193.20;182.87;;;8.00;99.90;;;;;;4407741;32;20168;-61
2021/11/10 05:47:06;;;;;;;192.40;182.23;;;8.10;99.90;;;;;;4405880;32;20526;-61
2021/11/10 05:49:33;;;;;;;200.00;189.10;;;8.10;99.90;;;;;;4405903;32;20196;-61
2021/11/10 05:52:00;;;;;;;194.40;184.30;;;8.00;99.90;;;;;;4415244;32;20596;-61
2021/11/10 05:54:27;;;;;;;181.83;171.57;;;8.00;99.90;;;;;;4420912;32;20163;-61
2021/11/10 05:56:54;;;;;;;175.23;165.57;;;7.90;99.90;;;;;;4421399;32;20223;-61
2021/11/10 05:59:21;;;;;;;178.40;168.33;;;7.90;99.90;;;;;;4420656;32;20187;-61
2021/11/10 06:01:48;;;;;;;190.00;180.17;;;7.80;99.90;;;;;;4420955;32;20155;-61
2021/11/10 06:04:16;;;;;;;194.70;184.60;;;7.80;99.90;;;;;;4419449;32;20174;-61
2021/11/10 06:06:43;;;;;;;200.17;190.23;;;7.90;99.90;;;;;;4417217;32;20226;-63
2021/11/10 06:09:10;;;;;;;202.63;192.63;;;7.90;99.90;;;;;;4422391;32;20191;-64
2021/11/10 06:11:37;;;;;;;188.23;178.80;;;7.90;99.90;;;;;;4420862;32;20156;-61
2021/11/10 06:14:04;;;;;;;192.63;182.70;;;8.00;99.90;;;;;;4418057;32;20210;-61
2021/11/10 06:16:31;;;;;;;195.53;185.50;;;8.00;99.90;;;;;;4412766;32;20184;-61
2021/11/10 06:18:58;;;;;;;205.60;195.20;;;8.00;99.90;;;;;;4413346;32;20183;-61
2021/11/10 06:21:26;;;;;;;193.43;183.27;;;8.00;99.90;;;;;;4413001;32;20183;-61
2021/11/10 06:23:53;;;;;;;203.67;192.87;;;8.00;99.90;;;;;;4411555;32;20555;-61
2021/11/10 06:26:19;;;;;;;178.43;169.80;;;8.00;99.90;;;;;;4414015;32;20170;-61
2021/11/10 06:28:48;;;;;;;199.70;189.80;;;8.00;99.90;;;;;;4410319;32;20202;-63
2021/11/10 06:31:15;;;;;;;189.50;179.90;;;7.90;99.90;;;;;;4414512;32;20155;-61
2021/11/10 06:33:42;;;;;;;173.57;165.07;;;8.00;99.90;;;;;;4414775;32;20209;-63
2021/11/10 06:36:09;;;;;;;164.47;156.10;;;8.00;99.90;;;;;;4412087;32;20552;-61
2021/11/10 06:38:38;;;;;;;174.13;164.87;;;8.00;99.90;;;;;;4411367;32;20211;-63
2021/11/10 06:41:05;;;;;;;168.93;160.10;;;8.00;99.90;;;;;;4412506;32;20156;-64
2021/11/10 06:43:32;;;;;;;172.17;163.67;;;8.00;99.90;;;;;;4408089;32;20194;-61
2021/11/10 06:46:01;;;;;;;149.07;141.17;;;8.00;99.90;;;;;;4412064;32;20604;-63
2021/11/10 06:48:29;;;;;;;153.47;145.43;;;8.10;99.90;;;;;;4410281;32;20165;-61
2021/11/10 06:50:56;;;;;;;154.10;145.33;;;8.00;99.90;;;;;;4409034;32;20209;-61
2021/11/10 06:53:23;;;;;;;147.67;139.53;;;8.00;99.90;;;;;;4412006;32;20189;-62
2021/11/10 06:55:51;;;;;;;149.17;141.50;;;8.00;99.90;;;;;;4409946;32;20623;-62
2021/11/10 06:58:20;;;;;;;161.37;153.17;;;7.90;99.90;;;;;;4411452;32;20443;-64
2021/11/10 07:00:47;;;;;;;158.03;149.70;;;7.80;99.90;;;;;;4404371;32;20165;-63
2021/11/10 07:03:14;;;;;;;154.33;145.57;;;7.80;99.90;;;;;;4409400;32;20163;-63
2021/11/10 07:05:42;;;;;;;171.00;162.10;;;7.70;99.90;;;;;;4407893;32;20212;-65
2021/11/10 07:08:09;;;;;;;181.47;171.80;;;7.80;99.90;;;;;;4408666;32;20179;-64
2021/11/10 07:10:36;;;;;;;171.90;163.00;;;7.80;99.90;;;;;;4408650;32;20179;-64
2021/11/10 07:13:04;;;;;;;177.40;168.10;;;7.80;99.90;;;;;;4415000;32;20176;-62
2021/11/10 07:15:31;;;;;;;169.80;160.70;;;7.80;99.90;;;;;;4412160;32;20496;-64
2021/11/10 07:17:58;;;;;;;166.90;157.73;;;7.80;99.90;;;;;;4408662;32;20219;-63
2021/11/10 07:20:26;;;;;;;165.40;156.83;;;7.80;99.90;;;;;;4413386;32;20163;-65
2021/11/10 07:23:01;;;;;;;153.87;145.60;;;7.90;99.90;;;;;;4414991;32;20160;-61
2021/11/10 07:25:29;;;;;;;155.97;148.03;;;8.00;99.90;;;;;;4408320;32;20623;-64
2021/11/10 07:27:56;;;;;;;163.73;154.37;;;8.00;99.90;;;;;;4410554;32;20499;-62
2021/11/10 07:30:24;;;;;;;184.07;174.23;;;7.90;99.90;;;;;;4410772;32;20688;-62
2021/11/10 07:32:51;;;;;;;165.37;156.87;;;7.90;99.90;;;;;;4411848;32;20222;-63
2021/11/10 07:35:19;;;;;;;172.30;163.87;;;8.00;99.90;;;;;;4413827;32;20538;-61
2021/11/10 07:37:47;;;;;;;163.37;154.83;;;8.10;99.90;;;;;;4409331;32;20161;-62
2021/11/10 07:40:17;;;;;;;176.43;167.03;;;8.20;99.90;;;;;;4416652;32;20164;-62
2021/11/10 07:42:45;;;;;;;155.07;147.17;;;8.30;99.90;;;;;;4411244;32;20205;-62
2021/11/10 07:45:15;;;;;;;146.13;137.73;;;8.30;99.90;;;;;;4408178;32;20214;-64
2021/11/10 07:47:46;;;;;;;163.60;155.53;;;8.40;99.90;;;;;;4407652;32;20226;-64
2021/11/10 07:50:15;;;;;;;145.73;138.03;;;8.50;99.90;;;;;;4408849;32;20179;-63
2021/11/10 07:52:42;;;;;;;142.13;134.63;;;8.50;99.90;;;;;;4424330;32;20178;-62
2021/11/10 07:55:10;;;;;;;148.03;139.50;;;8.50;99.90;;;;;;4415716;32;20165;-61
2021/11/10 07:57:37;;;;;;;161.17;152.83;;;8.50;99.90;;;;;;4407408;32;20174;-60
2021/11/10 08:00:09;;;;;;;143.67;136.03;;;8.60;99.90;;;;;;4414030;32;20180;-61
2021/11/10 08:02:36;;;;;;;143.90;136.10;;;8.60;99.90;;;;;;4407267;32;20188;-63
2021/11/10 08:05:04;;;;;;;142.83;134.70;;;8.60;99.90;;;;;;4419308;32;20622;-63
2021/11/10 08:07:33;;;;;;;157.30;148.93;;;8.50;99.90;;;;;;4407732;32;20658;-64
2021/11/10 08:09:59;;;;;;;143.60;135.00;;;8.50;99.90;;;;;;4417462;32;20160;-63
2021/11/10 08:12:27;;;;;;;143.13;134.97;;;8.50;99.90;;;;;;4411771;32;20184;-62
2021/11/10 08:14:54;;;;;;;138.23;130.17;;;8.50;99.90;;;;;;4407082;32;20219;-61
2021/11/10 08:17:21;;;;;;;143.33;135.27;;;8.40;99.90;;;;;;4409883;32;20191;-63
2021/11/10 08:19:48;;;;;;;152.97;144.73;;;8.40;99.90;;;;;;4407876;32;20169;-61
2021/11/10 08:22:16;;;;;;;156.83;148.60;;;8.50;99.90;;;;;;4417457;32;20203;-63
2021/11/10 08:24:45;;;;;;;143.67;135.60;;;8.50;99.90;;;;;;4414546;32;20156;-63
2021/11/10 08:27:12;;;;;;;145.67;137.47;;;8.60;99.90;;;;;;4416467;32;20161;-60
2021/11/10 08:29:39;;;;;;;147.57;139.27;;;8.50;99.90;;;;;;4413577;32;20219;-61
2021/11/10 08:32:06;;;;;;;161.13;151.83;;;8.80;99.90;;;;;;4409972;32;20166;-61
2021/11/10 08:34:33;;;;;;;142.13;134.40;;;8.60;99.90;;;;;;4423819;32;20579;-63
2021/11/10 08:37:01;;;;;;;141.37;133.83;;;8.70;99.90;;;;;;4410339;32;20613;-61
2021/11/10 08:39:29;;;;;;;151.23;142.63;;;8.60;99.90;;;;;;4412550;32;20523;-61
2021/11/10 08:41:56;;;;;;;151.93;143.63;;;8.70;99.90;;;;;;4408006;32;20179;-64
2021/11/10 08:44:24;;;;;;;137.83;130.47;;;8.70;99.90;;;;;;4406090;32;20616;-65
2021/11/10 08:46:51;;;;;;;141.90;133.50;;;8.80;99.90;;;;;;4413205;32;20237;-62
2021/11/10 08:49:18;;;;;;;153.43;145.13;;;8.80;99.90;;;;;;4411990;32;20171;-61
2021/11/10 08:51:44;;;;;;;150.57;142.50;;;8.80;99.90;;;;;;4412053;32;20145;-61
2021/11/10 08:54:15;;;;;;;147.27;139.07;;;8.90;99.90;;;;;;4419131;32;20207;-63
2021/11/10 08:56:43;;;;;;;143.07;134.77;;;8.80;99.90;;;;;;4407071;32;20203;-61
2021/11/10 08:59:10;;;;;;;141.60;132.97;;;8.90;99.90;;;;;;4407250;32;20168;-62
2021/11/10 09:01:38;;;;;;;144.03;136.60;;;8.90;99.90;;;;;;4412221;32;20190;-61
2021/11/10 09:04:05;;;;;;;154.10;145.93;;;9.00;99.90;;;;;;4413572;32;20577;-61
2021/11/10 09:06:34;;;;;;;146.23;137.97;;;9.00;99.90;;;;;;4411850;32;20167;-61
2021/11/10 09:09:01;;;;;;;142.53;134.73;;;9.00;99.90;;;;;;4418299;32;20179;-61
2021/11/10 09:11:28;;;;;;;145.30;137.23;;;9.10;99.90;;;;;;4407724;32;20164;-61
2021/11/10 09:13:56;;;;;;;151.17;143.13;;;9.10;99.90;;;;;;4412540;32;20526;-63
2021/11/10 09:16:23;;;;;;;143.13;135.80;;;9.10;99.90;;;;;;4415709;32;20174;-60
2021/11/10 09:18:50;;;;;;;148.10;139.87;;;9.20;99.90;;;;;;4409245;32;20160;-61
2021/11/10 09:21:17;;;;;;;147.13;138.43;;;9.20;99.90;;;;;;4409784;32;20179;-61
2021/11/10 09:23:44;;;;;;;140.77;132.30;;;9.30;99.90;;;;;;4417433;32;20527;-65
2021/11/10 09:26:10;;;;;;;147.47;139.30;;;9.50;99.90;;;;;;4409293;32;20181;-63
2021/11/10 09:28:37;;;;;;;149.70;141.10;;;9.70;99.90;;;;;;4412375;32;20159;-60
2021/11/10 09:31:06;;;;;;;154.23;145.50;;;9.80;99.90;;;;;;4411643;32;20229;-60
2021/11/10 09:33:37;;;;;;;154.23;145.27;;;10.00;99.90;;;;;;4415854;32;20197;-60
2021/11/10 09:36:04;;;;;;;149.50;140.63;;;10.20;99.90;;;;;;4413342;32;20175;-60
2021/11/10 09:38:32;;;;;;;136.83;128.80;;;10.40;99.90;;;;;;4412384;32;20587;-63
2021/11/10 09:41:00;;;;;;;140.87;132.73;;;10.40;99.90;;;;;;4413313;32;20234;-60
2021/11/10 09:43:33;;;;;;;138.73;130.10;;;10.50;99.90;;;;;;4412269;32;20515;-60
2021/11/10 09:46:00;;;;;;;132.50;124.67;;;10.50;99.90;;;;;;4409304;32;20159;-61
2021/11/10 09:48:32;;;;;;;122.80;114.97;;;10.60;99.90;;;;;;4406504;32;20579;-62
2021/11/10 09:51:00;;;;;;;122.87;115.57;;;10.70;99.90;;;;;;4413095;32;20171;-60
2021/11/10 09:53:27;;;;;;;129.83;122.17;;;10.70;99.90;;;;;;4420591;32;20205;-60
2021/11/10 09:55:55;;;;;;;120.97;113.50;;;10.80;99.90;;;;;;4405670;32;20181;-63
2021/11/10 09:58:24;;;;;;;129.63;122.33;;;10.90;99.90;;;;;;4405669;32;20236;-62
2021/11/10 10:00:55;;;;;;;120.70;113.23;;;11.00;99.90;;;;;;4407800;32;20161;-60
2021/11/10 10:03:23;;;;;;;135.47;127.80;;;10.90;99.90;;;;;;4412101;32;20215;-61
2021/11/10 10:05:54;;;;;;;126.57;119.47;;;10.90;99.90;;;;;;4405901;32;20164;-61
2021/11/10 10:08:22;;;;;;;134.97;127.13;;;11.00;99.90;;;;;;4406366;32;20186;-61
2021/11/10 10:10:50;;;;;;;134.83;127.33;;;11.00;99.90;;;;;;4415835;32;20167;-60
2021/11/10 10:13:22;;;;;;;144.40;135.93;;;11.00;99.90;;;;;;4405378;32;20147;-64
2021/11/10 10:15:51;;;;;;;139.07;131.27;;;10.90;99.90;;;;;;4414608;32;20170;-60
2021/11/10 10:18:23;;;;;;;130.07;122.43;;;10.80;99.90;;;;;;4407442;32;20209;-60
2021/11/10 10:20:57;;;;;;;130.23;122.83;;;10.80;99.90;;;;;;4408676;32;20197;-60
2021/11/10 10:23:27;;;;;;;134.00;126.07;;;10.70;99.90;;;;;;4405591;32;20149;-61
2021/11/10 10:25:56;;;;;;;138.93;131.17;;;10.80;99.90;;;;;;4406118;32;20182;-62
2021/11/10 10:28:27;;;;;;;133.80;126.63;;;10.80;99.90;;;;;;4405116;32;20163;-63
2021/11/10 10:30:56;;;;;;;151.30;143.50;;;10.80;99.90;;;;;;4413841;32;20157;-60
2021/11/10 10:33:27;;;;;;;145.73;137.77;;;10.90;99.90;;;;;;4406309;32;20164;-60
2021/11/10 10:35:57;;;;;;;144.50;136.30;;;10.90;99.90;;;;;;4406202;32;20152;-61
2021/11/10 10:38:29;;;;;;;138.80;131.90;;;11.10;99.90;;;;;;4405265;32;20603;-61
2021/11/10 10:40:59;;;;;;;136.50;128.93;;;11.40;99.90;;;;;;4412808;32;20591;-61
2021/11/10 10:43:30;;;;;;;131.37;123.90;;;11.50;99.90;;;;;;4406036;32;20223;-60
2021/11/10 10:46:00;;;;;;;133.03;125.53;;;11.50;99.90;;;;;;4407509;32;20167;-62
2021/11/10 10:48:31;;;;;;;133.80;126.53;;;11.50;99.90;;;;;;4411451;32;20162;-61
2021/11/10 10:51:03;;;;;;;136.67;129.23;;;11.60;99.90;;;;;;4414613;32;20155;-60
2021/11/10 10:53:38;;;;;;;138.93;131.63;;;11.80;99.90;;;;;;4407042;32;20225;-60
2021/11/10 10:56:24;;;;;;;126.80;119.47;;;11.90;99.90;;;;;;4407878;32;20159;-60
2021/11/10 10:58:53;;;;;;;136.77;129.50;;;11.90;99.90;;;;;;4391213;32;20229;-60
2021/11/10 11:01:33;;;;;;;129.10;121.23;;;12.00;99.90;;;;;;4384768;32;20223;-60
2021/11/10 11:04:03;;;;;;;124.73;117.77;;;12.10;99.90;;;;;;4377794;32;20243;-61
2021/11/10 11:06:39;;;;;;;151.80;143.37;;;12.00;99.90;;;;;;4385195;32;20235;-61
2021/11/10 11:09:17;;;;;;;134.63;127.57;;;12.00;99.90;;;;;;4386313;32;20195;-61
2021/11/10 11:12:01;;;;;;;135.80;128.63;;;12.00;99.90;;;;;;4391540;32;20479;-60
2021/11/10 11:14:52;;;;;;;139.37;132.00;;;11.90;99.90;;;;;;4391410;32;20175;-61
2021/11/10 11:17:26;;;;;;;139.07;131.40;;;11.90;99.90;;;;;;4388959;32;20180;-61
2021/11/10 11:19:58;;;;;;;134.67;127.07;;;11.90;99.90;;;;;;4388555;32;20234;-61
2021/11/10 11:22:37;;;;;;;133.93;127.00;;;12.00;99.90;;;;;;4390082;32;20197;-61
2021/11/10 11:25:16;;;;;;;137.03;129.80;;;11.80;99.90;;;;;;4387130;32;20218;-60
2021/11/10 11:27:54;;;;;;;146.67;138.80;;;11.90;99.90;;;;;;4388441;32;20619;-60
2021/11/10 11:30:22;;;;;;;148.07;139.80;;;11.90;99.90;;;;;;4388915;32;20639;-60
2021/11/10 11:32:50;;;;;;;161.47;153.53;;;12.00;99.90;;;;;;4387233;32;20160;-62
2021/11/10 11:35:27;;;;;;;151.63;143.67;;;12.00;99.90;;;;;;4389995;32;20194;-60
2021/11/10 11:37:56;;;;;;;143.97;136.33;;;12.10;99.90;;;;;;4384689;32;20221;-61
2021/11/10 11:40:25;;;;;;;147.50;139.90;;;12.10;99.90;;;;;;4384335;32;20258;-61
2021/11/10 11:42:58;;;;;;;132.23;124.73;;;12.10;99.90;;;;;;4386096;32;20238;-61
2021/11/10 11:45:27;;;;;;;134.40;126.60;;;11.90;99.90;;;;;;4388576;32;20218;-63
2021/11/10 11:47:56;;;;;;;145.13;137.67;;;11.90;99.90;;;;;;4388386;32;20160;-61
2021/11/10 11:50:25;;;;;;;158.40;150.00;;;11.80;99.90;;;;;;4387889;32;20187;-61
2021/11/10 11:52:52;;;;;;;164.63;156.37;;;11.90;99.90;;;;;;4389382;32;20163;-62
2021/11/10 11:55:24;;;;;;;146.20;138.63;;;11.90;99.90;;;;;;4390418;32;20619;-61
2021/11/10 11:58:05;;;;;;;163.90;155.47;;;12.00;99.90;;;;;;4389429;32;20170;-65
2021/11/10 12:00:36;;;;;;;137.70;130.27;;;12.00;99.90;;;;;;4387637;32;20174;-63
2021/11/10 12:03:16;;;;;;;152.27;143.50;;;11.90;99.90;;;;;;4387371;32;20204;-62
2021/11/10 12:05:43;;;;;;;152.97;144.87;;;11.90;99.90;;;;;;4390270;32;20156;-62
2021/11/10 12:08:10;;;;;;;154.63;146.23;;;11.90;99.90;;;;;;4375718;32;20231;-62
2021/11/10 12:10:43;;;;;;;145.17;137.27;;;11.90;99.90;;;;;;4384430;32;20215;-64
2021/11/10 12:13:23;;;;;;;159.10;151.00;;;11.80;99.90;;;;;;4386549;32;20180;-62
2021/11/10 12:16:23;;;;;;;168.63;159.93;;;11.70;99.90;;;;;;4381359;32;20580;-61
2021/11/10 12:18:56;;;;;;;157.03;148.77;;;11.70;99.90;;;;;;4350611;32;20199;-62
2021/11/10 12:21:33;;;;;;;165.17;156.37;;;11.80;99.90;;;;;;4353195;32;20187;-63